createdAt,value
2024-01-05T00:00:03.641Z,40.23
2024-01-05T00:01:03.690Z,40.23
2024-01-05T00:02:03.536Z,40.21
2024-01-05T00:03:03.554Z,40.23
2024-01-05T00:04:03.591Z,40.22
2024-01-05T00:05:03.515Z,40.23
2024-01-05T00:06:03.580Z,40.23
2024-01-05T00:07:03.486Z,40.22
2024-01-05T00:08:03.439Z,40.23
2024-01-05T00:09:03.452Z,40.23
2024-01-05T00:10:03.419Z,40.23
2024-01-05T00:11:03.402Z,40.24
2024-01-05T00:13:03.374Z,40.24
2024-01-05T00:14:03.355Z,40.24
2024-01-05T00:15:03.398Z,40.20
2024-01-05T00:16:03.329Z,40.25
2024-01-05T00:17:03.328Z,40.21
2024-01-05T00:18:03.377Z,40.22
2024-01-05T00:19:03.345Z,40.21
2024-01-05T00:20:03.318Z,40.23
2024-01-05T00:21:03.294Z,40.22
2024-01-05T00:22:03.245Z,40.21
2024-01-05T00:23:03.222Z,40.21
2024-01-05T00:24:03.240Z,40.23
2024-01-05T00:25:03.205Z,40.22
2024-01-05T00:26:03.195Z,40.21
2024-01-05T00:27:03.191Z,40.22
2024-01-05T00:28:03.140Z,40.24
2024-01-05T00:29:03.126Z,40.23
2024-01-05T00:30:03.159Z,40.20
2024-01-05T00:31:03.203Z,40.21
2024-01-05T00:32:03.081Z,40.21
2024-01-05T00:33:03.174Z,40.21
2024-01-05T00:34:03.140Z,40.24
2024-01-05T00:35:03.009Z,40.22
2024-01-05T00:36:03.034Z,40.22
2024-01-05T00:37:02.986Z,40.21
2024-01-05T00:38:02.951Z,40.21
2024-01-05T00:39:02.913Z,40.19
2024-01-05T00:40:02.889Z,40.20
2024-01-05T00:41:02.866Z,40.20
2024-01-05T00:42:02.870Z,40.21
2024-01-05T00:43:02.822Z,40.22
2024-01-05T00:44:02.810Z,40.20
2024-01-05T00:45:02.833Z,40.21
2024-01-05T00:46:02.771Z,40.19
2024-01-05T00:47:02.735Z,40.19
2024-01-05T00:48:02.859Z,40.23
2024-01-05T00:49:02.720Z,40.22
2024-01-05T00:50:02.687Z,40.21
2024-01-05T00:51:02.686Z,40.20
2024-01-05T00:52:02.694Z,40.21
2024-01-05T00:53:02.633Z,40.20
2024-01-05T00:54:02.635Z,40.18
2024-01-05T00:55:02.613Z,40.19
2024-01-05T00:56:02.601Z,40.18
2024-01-05T00:57:02.632Z,40.18
2024-01-05T00:58:02.594Z,40.20
2024-01-05T00:59:02.579Z,40.18
2024-01-05T01:00:02.618Z,40.19
2024-01-05T01:01:02.619Z,40.17
2024-01-05T01:02:02.536Z,40.15
2024-01-05T01:03:02.637Z,40.15
2024-01-05T01:04:02.671Z,40.16
2024-01-05T01:05:02.542Z,40.17
2024-01-05T01:06:02.539Z,40.18
2024-01-05T01:07:02.491Z,40.15
2024-01-05T01:08:02.476Z,40.18
2024-01-05T01:09:02.481Z,40.14
2024-01-05T01:10:02.448Z,40.14
2024-01-05T01:11:02.450Z,40.16
2024-01-05T01:12:02.478Z,40.14
2024-01-05T01:13:02.438Z,40.12
2024-01-05T01:14:02.478Z,40.15
2024-01-05T01:15:02.466Z,40.11
2024-01-05T01:16:02.459Z,40.11
2024-01-05T01:17:02.423Z,40.14
2024-01-05T01:18:02.502Z,40.12
2024-01-05T01:19:02.750Z,40.14
2024-01-05T01:20:02.388Z,40.11
2024-01-05T01:21:02.429Z,40.12
2024-01-05T01:22:02.387Z,40.12
2024-01-05T01:23:02.401Z,40.11
2024-01-05T01:24:02.517Z,40.09
2024-01-05T01:25:02.406Z,40.10
2024-01-05T01:26:02.416Z,40.10
2024-01-05T01:27:02.403Z,40.11
2024-01-05T01:28:02.397Z,40.09
2024-01-05T01:29:02.379Z,40.10
2024-01-05T01:30:02.575Z,40.10
2024-01-05T01:31:02.471Z,40.09
2024-01-05T01:32:02.380Z,40.08
2024-01-05T01:33:02.450Z,40.08
2024-01-05T01:34:02.488Z,40.09
2024-01-05T01:35:02.457Z,40.10
2024-01-05T01:36:02.581Z,40.07
2024-01-05T01:37:02.501Z,40.08
2024-01-05T01:38:02.547Z,40.07
2024-01-05T01:39:02.607Z,40.08
2024-01-05T01:40:02.574Z,40.07
2024-01-05T01:41:02.604Z,40.09
2024-01-05T01:42:02.719Z,40.07
2024-01-05T01:43:02.744Z,40.07
2024-01-05T01:44:02.680Z,40.06
2024-01-05T01:45:02.704Z,40.08
2024-01-05T01:46:02.651Z,40.07
2024-01-05T01:47:02.639Z,40.07
2024-01-05T01:48:02.716Z,40.07
2024-01-05T01:49:02.750Z,40.07
2024-01-05T01:50:02.648Z,40.08
2024-01-05T01:51:02.604Z,40.05
2024-01-05T01:52:02.588Z,40.08
2024-01-05T01:53:02.583Z,40.04
2024-01-05T01:54:02.610Z,40.06
2024-01-05T01:55:02.545Z,40.06
2024-01-05T01:56:02.519Z,40.06
2024-01-05T01:57:02.524Z,40.05
2024-01-05T01:58:02.499Z,40.05
2024-01-05T01:59:02.549Z,40.04
2024-01-05T02:00:02.628Z,40.06
2024-01-05T02:01:02.493Z,40.06
2024-01-05T02:02:02.485Z,40.06
2024-01-05T02:03:02.582Z,40.05
2024-01-05T02:04:02.595Z,40.06
2024-01-05T02:05:02.592Z,40.06
2024-01-05T02:06:02.555Z,40.07
2024-01-05T02:07:02.495Z,40.05
2024-01-05T02:08:02.501Z,40.06
2024-01-05T02:09:02.580Z,40.03
2024-01-05T02:10:02.517Z,40.07
2024-01-05T02:11:02.482Z,40.04
2024-01-05T02:12:02.489Z,40.04
2024-01-05T02:13:02.426Z,40.05
2024-01-05T02:14:02.412Z,40.03
2024-01-05T02:15:02.476Z,40.05
2024-01-05T02:16:02.441Z,40.04
2024-01-05T02:17:02.389Z,40.04
2024-01-05T02:18:02.532Z,40.05
2024-01-05T02:19:02.521Z,40.06
2024-01-05T02:20:02.332Z,40.05
2024-01-05T02:21:02.463Z,40.04
2024-01-05T02:22:02.326Z,40.05
2024-01-05T02:23:02.292Z,40.04
2024-01-05T02:24:02.463Z,40.04
2024-01-05T02:25:02.362Z,40.04
2024-01-05T02:26:02.501Z,40.04
2024-01-05T02:27:02.506Z,40.05
2024-01-05T02:28:02.343Z,40.04
2024-01-05T02:29:02.345Z,40.04
2024-01-05T02:30:02.393Z,40.05
2024-01-05T02:31:02.611Z,40.05
2024-01-05T02:32:02.357Z,40.07
2024-01-05T02:33:02.440Z,40.05
2024-01-05T02:34:02.412Z,40.04
2024-01-05T02:35:02.455Z,40.03
2024-01-05T02:36:02.362Z,40.04
2024-01-05T02:37:02.314Z,40.04
2024-01-05T02:38:02.316Z,40.03
2024-01-05T02:39:02.333Z,40.03
2024-01-05T02:40:02.301Z,40.02
2024-01-05T02:41:02.283Z,40.03
2024-01-05T02:42:02.330Z,40.03
2024-01-05T02:43:02.268Z,40.04
2024-01-05T02:44:02.268Z,40.05
2024-01-05T02:45:02.283Z,40.04
2024-01-05T02:46:02.233Z,40.04
2024-01-05T02:47:02.224Z,40.02
2024-01-05T02:48:02.631Z,40.02
2024-01-05T02:49:02.346Z,40.04
2024-01-05T02:50:02.183Z,40.04
2024-01-05T02:51:02.243Z,40.04
2024-01-05T02:52:02.152Z,40.02
2024-01-05T02:53:02.158Z,40.02
2024-01-05T02:54:02.189Z,40.01
2024-01-05T02:55:02.128Z,40.00
2024-01-05T02:56:02.119Z,40.03
2024-01-05T02:57:02.136Z,40.03
2024-01-05T02:58:02.090Z,40.03
2024-01-05T02:59:02.080Z,40.01
2024-01-05T03:00:02.126Z,40.01
2024-01-05T03:01:02.147Z,40.02
2024-01-05T03:02:02.057Z,40.01
2024-01-05T03:03:02.062Z,39.99
2024-01-05T03:04:02.475Z,40.02
2024-01-05T03:05:02.075Z,40.02
2024-01-05T03:06:02.078Z,40.01
2024-01-05T03:07:02.050Z,40.00
2024-01-05T03:08:02.061Z,40.02
2024-01-05T03:09:02.096Z,40.01
2024-01-05T03:10:02.044Z,39.99
2024-01-05T03:11:02.031Z,40.01
2024-01-05T03:12:02.080Z,40.01
2024-01-05T03:13:02.021Z,40.01
2024-01-05T03:14:01.998Z,40.01
2024-01-05T03:15:02.058Z,39.99
2024-01-05T03:16:01.974Z,40.02
2024-01-05T03:17:01.980Z,40.01
2024-01-05T03:18:02.292Z,40.00
2024-01-05T03:19:02.232Z,39.99
2024-01-05T03:20:02.296Z,40.02
2024-01-05T03:21:02.092Z,39.99
2024-01-05T03:22:02.046Z,40.00
2024-01-05T03:23:02.028Z,39.99
2024-01-05T03:24:02.081Z,39.98
2024-01-05T03:25:02.049Z,40.01
2024-01-05T03:26:02.052Z,40.00
2024-01-05T03:27:02.056Z,40.00
2024-01-05T03:28:01.994Z,40.01
2024-01-05T03:29:02.017Z,39.99
2024-01-05T03:30:02.139Z,40.01
2024-01-05T03:31:02.184Z,39.98
2024-01-05T03:32:01.997Z,40.00
2024-01-05T03:33:02.262Z,39.99
2024-01-05T03:34:02.299Z,40.01
2024-01-05T03:35:02.030Z,40.01
2024-01-05T03:36:02.194Z,40.02
2024-01-05T03:37:02.110Z,40.00
2024-01-05T03:38:02.096Z,39.98
2024-01-05T03:39:02.287Z,39.98
2024-01-05T03:40:02.090Z,39.98
2024-01-05T03:41:02.059Z,40.00
2024-01-05T03:42:02.093Z,39.99
2024-01-05T03:43:02.032Z,39.97
2024-01-05T03:44:02.073Z,39.98
2024-01-05T03:45:02.276Z,40.00
2024-01-05T03:46:02.002Z,40.01
2024-01-05T03:47:02.001Z,39.99
2024-01-05T03:48:02.320Z,39.96
2024-01-05T03:49:02.199Z,40.01
2024-01-05T03:50:02.099Z,39.98
2024-01-05T03:51:02.090Z,39.99
2024-01-05T03:52:01.996Z,39.99
2024-01-05T03:53:02.058Z,39.99
2024-01-05T03:54:02.077Z,39.97
2024-01-05T03:55:02.030Z,39.98
2024-01-05T03:56:02.014Z,39.98
2024-01-05T03:57:02.036Z,39.98
2024-01-05T03:58:02.033Z,39.98
2024-01-05T03:59:02.036Z,39.99
2024-01-05T04:00:02.042Z,39.97
2024-01-05T04:01:02.064Z,39.95
2024-01-05T04:02:02.076Z,39.95
2024-01-05T04:03:02.241Z,39.95
2024-01-05T04:04:02.247Z,39.97
2024-01-05T04:05:02.182Z,39.96
2024-01-05T04:06:02.152Z,39.97
2024-01-05T04:07:02.065Z,39.96
2024-01-05T04:08:02.068Z,39.98
2024-01-05T04:09:02.163Z,39.97
2024-01-05T04:10:02.168Z,39.97
2024-01-05T04:11:02.062Z,39.97
2024-01-05T04:12:02.161Z,39.98
2024-01-05T04:13:02.075Z,39.98
2024-01-05T04:14:02.062Z,39.96
2024-01-05T04:15:02.095Z,39.95
2024-01-05T04:16:02.049Z,39.95
2024-01-05T04:17:02.106Z,39.96
2024-01-05T04:18:02.178Z,39.96
2024-01-05T04:19:02.147Z,39.96
2024-01-05T04:20:02.124Z,39.95
2024-01-05T04:21:02.145Z,39.96
2024-01-05T04:22:02.141Z,39.97
2024-01-05T04:23:01.987Z,39.96
2024-01-05T04:24:02.042Z,39.94
2024-01-05T04:25:02.199Z,39.95
2024-01-05T04:26:02.248Z,39.96
2024-01-05T04:27:02.279Z,39.93
2024-01-05T04:28:02.153Z,39.93
2024-01-05T04:29:02.164Z,39.94
2024-01-05T04:30:02.345Z,39.94
2024-01-05T04:31:02.359Z,39.96
2024-01-05T04:32:02.180Z,39.95
2024-01-05T04:33:02.179Z,39.94
2024-01-05T04:34:02.809Z,39.94
2024-01-05T04:35:02.160Z,39.93
2024-01-05T04:36:02.242Z,39.93
2024-01-05T04:37:02.249Z,39.93
2024-01-05T04:38:02.285Z,39.96
2024-01-05T04:39:02.402Z,39.95
2024-01-05T04:40:02.369Z,39.96
2024-01-05T04:41:02.358Z,39.93
2024-01-05T04:42:02.494Z,39.94
2024-01-05T04:43:02.337Z,39.94
2024-01-05T04:44:02.343Z,39.92
2024-01-05T04:45:02.452Z,39.94
2024-01-05T04:46:02.348Z,39.96
2024-01-05T04:47:02.299Z,39.92
2024-01-05T04:48:02.483Z,39.93
2024-01-05T04:49:02.404Z,39.93
2024-01-05T04:50:02.261Z,39.97
2024-01-05T04:51:02.290Z,39.95
2024-01-05T04:52:02.322Z,39.93
2024-01-05T04:53:02.311Z,39.95
2024-01-05T04:54:02.270Z,39.91
2024-01-05T04:55:02.323Z,39.95
2024-01-05T04:56:02.284Z,39.91
2024-01-05T04:57:02.297Z,39.92
2024-01-05T04:58:02.310Z,39.94
2024-01-05T04:59:02.300Z,39.95
2024-01-05T05:00:02.366Z,39.95
2024-01-05T05:01:02.307Z,39.92
2024-01-05T05:02:02.241Z,39.92
2024-01-05T05:03:02.422Z,39.95
2024-01-05T05:04:02.311Z,39.95
2024-01-05T05:05:02.258Z,39.94
2024-01-05T05:06:02.351Z,39.94
2024-01-05T05:07:02.223Z,39.91
2024-01-05T05:08:02.275Z,39.92
2024-01-05T05:09:02.330Z,39.93
2024-01-05T05:10:02.351Z,39.96
2024-01-05T05:11:02.205Z,39.93
2024-01-05T05:12:09.631Z,40.01
2024-01-05T05:13:09.588Z,39.98
2024-01-05T05:14:09.575Z,39.96
2024-01-05T05:15:09.596Z,39.94
2024-01-05T05:16:09.537Z,39.93
2024-01-05T05:17:09.527Z,39.94
2024-01-05T05:18:09.621Z,39.93
2024-01-05T05:19:09.659Z,39.93
2024-01-05T05:20:09.481Z,39.93
2024-01-05T05:21:09.493Z,39.92
2024-01-05T05:22:09.459Z,39.95
2024-01-05T05:23:09.444Z,39.94
2024-01-05T05:24:09.441Z,39.93
2024-01-05T05:25:09.396Z,39.92
2024-01-05T05:26:09.386Z,39.93
2024-01-05T05:27:09.393Z,39.94
2024-01-05T05:28:09.376Z,39.95
2024-01-05T05:29:10.216Z,39.92
2024-01-05T05:30:09.436Z,39.92
2024-01-05T05:31:09.444Z,39.92
2024-01-05T05:32:09.304Z,39.93
2024-01-05T05:33:09.372Z,39.94
2024-01-05T05:34:09.394Z,39.90
2024-01-05T05:35:09.259Z,39.94
2024-01-05T05:36:09.269Z,39.94
2024-01-05T05:37:09.251Z,39.93
2024-01-05T05:38:09.208Z,39.92
2024-01-05T05:39:09.238Z,39.93
2024-01-05T05:40:09.193Z,39.93
2024-01-05T05:41:09.174Z,39.91
2024-01-05T05:42:09.190Z,39.92
2024-01-05T05:43:09.148Z,39.92
2024-01-05T05:44:09.146Z,39.92
2024-01-05T05:45:09.188Z,39.91
2024-01-05T05:46:09.112Z,39.90
2024-01-05T05:47:09.104Z,39.94
2024-01-05T05:48:09.192Z,39.91
2024-01-05T05:49:09.125Z,39.92
2024-01-05T05:50:09.044Z,39.93
2024-01-05T05:51:09.057Z,39.91
2024-01-05T05:52:09.023Z,39.92
2024-01-05T05:53:09.005Z,39.91
2024-01-05T05:54:09.045Z,39.90
2024-01-05T05:55:09.720Z,39.91
2024-01-05T05:56:08.966Z,39.92
2024-01-05T05:57:09.017Z,39.88
2024-01-05T05:58:08.940Z,39.94
2024-01-05T05:59:08.927Z,39.91
2024-01-05T06:00:09.976Z,39.89
2024-01-05T06:01:08.928Z,39.91
2024-01-05T06:02:08.903Z,39.92
2024-01-05T06:03:11.665Z,39.89
2024-01-05T06:04:09.135Z,39.92
2024-01-05T06:05:08.879Z,39.89
2024-01-05T06:06:08.929Z,39.90
2024-01-05T06:07:08.960Z,39.88
2024-01-05T06:08:08.855Z,39.90
2024-01-05T06:09:08.918Z,39.93
2024-01-05T06:10:08.847Z,39.88
2024-01-05T06:11:08.823Z,39.90
2024-01-05T06:12:08.869Z,39.90
2024-01-05T06:13:08.813Z,39.91
2024-01-05T06:14:08.805Z,39.90
2024-01-05T06:15:08.837Z,39.88
2024-01-05T06:16:08.803Z,39.88
2024-01-05T06:17:08.790Z,39.91
2024-01-05T06:18:08.977Z,39.89
2024-01-05T06:19:08.863Z,39.92
2024-01-05T06:20:08.768Z,39.91
2024-01-05T06:21:08.828Z,39.92
2024-01-05T06:22:08.752Z,39.91
2024-01-05T06:23:08.900Z,39.90
2024-01-05T06:24:08.878Z,39.90
2024-01-05T06:25:08.729Z,39.90
2024-01-05T06:26:08.723Z,39.91
2024-01-05T06:27:08.730Z,39.92
2024-01-05T06:28:08.718Z,39.90
2024-01-05T06:29:08.685Z,39.91
2024-01-05T06:30:08.802Z,39.91
2024-01-05T06:31:08.867Z,39.90
2024-01-05T06:32:08.702Z,39.91
2024-01-05T06:33:08.910Z,39.90
2024-01-05T06:34:08.683Z,39.91
2024-01-05T06:35:08.733Z,39.93
2024-01-05T06:36:08.718Z,39.91
2024-01-05T06:37:08.613Z,39.92
2024-01-05T06:38:08.587Z,39.90
2024-01-05T06:39:08.685Z,39.92
2024-01-05T06:40:08.608Z,39.90
2024-01-05T06:41:08.624Z,39.90
2024-01-05T06:42:09.292Z,39.91
2024-01-05T06:43:08.609Z,39.90
2024-01-05T06:44:08.519Z,39.89
2024-01-05T06:45:08.625Z,39.92
2024-01-05T06:46:08.505Z,39.90
2024-01-05T06:47:08.501Z,39.89
2024-01-05T06:48:08.675Z,39.90
2024-01-05T06:49:08.787Z,39.91
2024-01-05T06:50:08.617Z,39.89
2024-01-05T06:51:08.468Z,39.90
2024-01-05T06:52:08.750Z,39.88
2024-01-05T06:53:08.468Z,39.92
2024-01-05T06:54:08.524Z,39.89
2024-01-05T06:55:08.515Z,39.90
2024-01-05T06:56:08.565Z,39.89
2024-01-05T06:57:08.641Z,39.89
2024-01-05T06:58:08.491Z,39.90
2024-01-05T06:59:08.578Z,39.91
2024-01-05T07:00:08.651Z,39.90
2024-01-05T07:01:08.607Z,39.88
2024-01-05T07:02:08.496Z,39.89
2024-01-05T07:03:08.687Z,39.89
2024-01-05T07:04:08.561Z,39.90
2024-01-05T07:05:08.516Z,39.89
2024-01-05T07:06:08.500Z,39.88
2024-01-05T07:07:08.501Z,39.88
2024-01-05T07:08:08.493Z,39.87
2024-01-05T07:09:08.553Z,39.89
2024-01-05T07:10:08.520Z,39.90
2024-01-05T07:11:08.533Z,39.90
2024-01-05T07:12:08.561Z,39.88
2024-01-05T07:13:08.604Z,39.88
2024-01-05T07:14:08.613Z,39.89
2024-01-05T07:15:08.681Z,39.89
2024-01-05T07:16:08.616Z,39.90
2024-01-05T07:17:08.619Z,39.89
2024-01-05T07:18:08.830Z,39.89
2024-01-05T07:19:08.792Z,39.88
2024-01-05T07:20:08.661Z,39.87
2024-01-05T07:21:08.679Z,39.89
2024-01-05T07:22:08.639Z,39.87
2024-01-05T07:23:08.664Z,39.87
2024-01-05T07:24:08.703Z,39.87
2024-01-05T07:25:08.706Z,39.88
2024-01-05T07:26:08.753Z,39.90
2024-01-05T07:27:08.821Z,39.87
2024-01-05T07:28:08.820Z,39.86
2024-01-05T07:29:08.859Z,39.85
2024-01-05T07:30:08.958Z,39.85
2024-01-05T07:31:08.947Z,39.86
2024-01-05T07:32:08.925Z,39.86
2024-01-05T07:33:09.041Z,39.88
2024-01-05T07:34:09.071Z,39.88
2024-01-05T07:35:08.966Z,39.84
2024-01-05T07:36:08.978Z,39.83
2024-01-05T07:37:08.992Z,39.85
2024-01-05T07:38:09.013Z,39.84
2024-01-05T07:39:09.045Z,39.83
2024-01-05T07:40:09.056Z,39.85
2024-01-05T07:41:09.063Z,39.84
2024-01-05T07:42:09.109Z,39.84
2024-01-05T07:43:09.140Z,39.83
2024-01-05T07:44:09.143Z,39.82
2024-01-05T07:45:09.331Z,39.83
2024-01-05T07:46:09.180Z,39.84
2024-01-05T07:47:09.169Z,39.82
2024-01-05T07:48:09.354Z,39.82
2024-01-05T07:49:09.351Z,39.83
2024-01-05T07:50:09.217Z,39.82
2024-01-05T07:51:09.260Z,39.80
2024-01-05T07:52:09.249Z,39.82
2024-01-05T07:53:09.253Z,39.80
2024-01-05T07:54:09.386Z,39.80
2024-01-05T07:55:09.296Z,39.81
2024-01-05T07:56:09.301Z,39.81
2024-01-05T07:57:09.304Z,39.81
2024-01-05T07:58:09.383Z,39.79
2024-01-05T07:59:09.298Z,39.79
2024-01-05T08:00:09.353Z,39.78
2024-01-05T08:01:09.343Z,39.79
2024-01-05T08:02:09.340Z,39.80
2024-01-05T08:03:09.414Z,39.80
2024-01-05T08:04:09.588Z,39.80
2024-01-05T08:05:09.384Z,39.79
2024-01-05T08:06:09.442Z,39.78
2024-01-05T08:07:09.491Z,39.79
2024-01-05T08:08:09.421Z,39.80
2024-01-05T08:09:09.516Z,39.78
2024-01-05T08:10:09.428Z,39.78
2024-01-05T08:11:09.432Z,39.78
2024-01-05T08:12:09.446Z,39.78
2024-01-05T08:13:09.421Z,39.77
2024-01-05T08:14:09.428Z,39.76
2024-01-05T08:15:09.534Z,39.77
2024-01-05T08:16:09.460Z,39.77
2024-01-05T08:17:09.479Z,39.79
2024-01-05T08:18:09.513Z,39.78
2024-01-05T08:19:09.560Z,39.78
2024-01-05T08:20:09.429Z,39.78
2024-01-05T08:21:09.452Z,39.75
2024-01-05T08:22:09.445Z,39.76
2024-01-05T08:23:09.449Z,39.76
2024-01-05T08:24:09.491Z,39.77
2024-01-05T08:25:09.533Z,39.75
2024-01-05T08:26:09.464Z,39.73
2024-01-05T08:27:09.509Z,39.74
2024-01-05T08:28:09.436Z,39.74
2024-01-05T08:29:09.473Z,39.75
2024-01-05T08:30:09.606Z,39.74
2024-01-05T08:31:09.696Z,39.76
2024-01-05T08:32:09.538Z,39.74
2024-01-05T08:33:09.661Z,39.75
2024-01-05T08:34:09.754Z,39.76
2024-01-05T08:35:09.637Z,39.73
2024-01-05T08:36:09.679Z,39.75
2024-01-05T08:37:09.653Z,39.74
2024-01-05T08:38:09.701Z,39.74
2024-01-05T08:39:09.748Z,39.75
2024-01-05T08:40:09.745Z,39.75
2024-01-05T08:41:09.777Z,39.76
2024-01-05T08:42:10.099Z,39.74
2024-01-05T08:43:09.889Z,39.73
2024-01-05T08:44:09.913Z,39.75
2024-01-05T08:45:09.943Z,39.74
2024-01-05T08:46:09.917Z,39.73
2024-01-05T08:47:09.948Z,39.75
2024-01-05T08:48:10.131Z,39.74
2024-01-05T08:49:10.073Z,39.77
2024-01-05T08:50:10.138Z,39.74
2024-01-05T08:51:10.143Z,39.73
2024-01-05T08:52:10.348Z,39.73
2024-01-05T08:53:10.144Z,39.74
2024-01-05T08:54:10.172Z,39.74
2024-01-05T08:55:10.161Z,39.73
2024-01-05T08:56:10.184Z,39.73
2024-01-05T08:57:10.210Z,39.76
2024-01-05T08:58:10.285Z,39.74
2024-01-05T08:59:10.222Z,39.74
2024-01-05T09:00:10.272Z,39.73
2024-01-05T09:01:10.350Z,39.73
2024-01-05T09:02:10.607Z,39.74
2024-01-05T09:03:10.402Z,39.71
2024-01-05T09:04:10.300Z,39.73
2024-01-05T09:05:10.508Z,39.71
2024-01-05T09:06:10.400Z,39.74
2024-01-05T09:07:10.453Z,39.74
2024-01-05T09:08:10.460Z,39.71
2024-01-05T09:09:10.594Z,39.71
2024-01-05T09:10:10.530Z,39.72
2024-01-05T09:11:10.544Z,39.74
2024-01-05T09:12:10.859Z,39.70
2024-01-05T09:13:10.580Z,39.72
2024-01-05T09:14:10.612Z,39.71
2024-01-05T09:15:10.654Z,39.72
2024-01-05T09:16:10.600Z,39.72
2024-01-05T09:17:10.652Z,39.72
2024-01-05T09:18:10.846Z,39.72
2024-01-05T09:19:10.780Z,39.70
2024-01-05T09:20:10.797Z,39.70
2024-01-05T09:21:10.826Z,39.70
2024-01-05T09:22:11.138Z,39.71
2024-01-05T09:23:10.880Z,39.69
2024-01-05T09:24:10.932Z,39.69
2024-01-05T09:25:10.996Z,39.69
2024-01-05T09:26:10.999Z,39.69
2024-01-05T09:27:11.075Z,39.67
2024-01-05T09:28:11.080Z,39.67
2024-01-05T09:29:11.125Z,39.69
2024-01-05T09:30:11.222Z,39.67
2024-01-05T09:31:11.369Z,39.66
2024-01-05T09:32:11.672Z,39.67
2024-01-05T09:33:11.399Z,39.66
2024-01-05T09:34:11.462Z,39.66
2024-01-05T09:35:11.344Z,39.67
2024-01-05T09:36:11.462Z,39.65
2024-01-05T09:37:11.386Z,39.66
2024-01-05T09:38:11.442Z,39.68
2024-01-05T09:39:11.575Z,39.66
2024-01-05T09:40:11.596Z,39.68
2024-01-05T09:41:11.630Z,39.66
2024-01-05T09:42:11.968Z,39.67
2024-01-05T09:43:11.706Z,39.68
2024-01-05T09:44:11.738Z,39.67
2024-01-05T09:45:11.811Z,39.68
2024-01-05T09:46:11.840Z,39.67
2024-01-05T09:47:11.889Z,39.67
2024-01-05T09:48:12.023Z,39.67
2024-01-05T09:49:12.038Z,39.68
2024-01-05T09:50:12.003Z,39.66
2024-01-05T09:51:11.887Z,39.67
2024-01-05T09:52:12.205Z,39.67
2024-01-05T09:53:11.979Z,39.67
2024-01-05T09:54:12.014Z,39.66
2024-01-05T09:55:12.013Z,39.67
2024-01-05T09:56:12.083Z,39.66
2024-01-05T09:57:12.110Z,39.66
2024-01-05T09:58:12.070Z,39.66
2024-01-05T09:59:12.109Z,39.66
2024-01-05T10:00:12.156Z,39.66
2024-01-05T10:01:12.174Z,39.66
2024-01-05T10:02:12.145Z,39.67
2024-01-05T10:03:12.208Z,39.66
2024-01-05T10:04:12.267Z,39.65
2024-01-05T10:05:12.243Z,39.67
2024-01-05T10:06:12.369Z,39.66
2024-01-05T10:07:12.513Z,39.64
2024-01-05T10:08:12.344Z,39.67
2024-01-05T10:09:12.363Z,39.65
2024-01-05T10:10:12.353Z,39.65
2024-01-05T10:11:12.362Z,39.66
2024-01-05T10:12:12.410Z,39.67
2024-01-05T10:13:12.410Z,39.66
2024-01-05T10:14:12.423Z,39.66
2024-01-05T10:15:12.440Z,39.65
2024-01-05T10:16:12.423Z,39.63
2024-01-05T10:17:12.417Z,39.66
2024-01-05T10:18:12.518Z,39.66
2024-01-05T10:19:12.572Z,39.65
2024-01-05T10:20:12.489Z,39.65
2024-01-05T10:21:12.602Z,39.65
2024-01-05T10:22:12.532Z,39.63
2024-01-05T10:23:12.573Z,39.65
2024-01-05T10:24:12.618Z,39.61
2024-01-05T10:25:12.664Z,39.62
2024-01-05T10:26:12.736Z,39.62
2024-01-05T10:27:12.837Z,39.61
2024-01-05T10:28:12.789Z,39.58
2024-01-05T10:29:12.830Z,39.57
2024-01-05T10:30:12.989Z,39.59
2024-01-05T10:31:13.027Z,39.58
2024-01-05T10:32:12.976Z,39.54
2024-01-05T10:33:13.130Z,39.53
2024-01-05T10:34:13.157Z,39.52
2024-01-05T10:35:13.116Z,39.48
2024-01-05T10:36:13.200Z,39.41
2024-01-05T10:37:13.243Z,39.38
2024-01-05T10:38:13.305Z,39.34
2024-01-05T10:39:13.387Z,39.30
2024-01-05T10:40:13.416Z,39.28
2024-01-05T10:41:13.475Z,39.22
2024-01-05T10:42:13.541Z,39.19
2024-01-05T10:43:13.572Z,39.16
2024-01-05T10:44:13.641Z,39.11
2024-01-05T10:45:13.726Z,39.08
2024-01-05T10:46:13.749Z,39.05
2024-01-05T10:47:13.820Z,39.04
2024-01-05T10:48:13.979Z,39.05
2024-01-05T10:49:14.020Z,39.07
2024-01-05T10:50:14.058Z,39.08
2024-01-05T10:51:14.028Z,39.11
2024-01-05T10:52:14.058Z,39.12
2024-01-05T10:53:14.094Z,39.13
2024-01-05T10:54:14.234Z,39.13
2024-01-05T10:55:14.202Z,39.11
2024-01-05T10:56:14.266Z,39.10
2024-01-05T10:57:14.360Z,39.13
2024-01-05T10:58:14.334Z,39.12
2024-01-05T10:59:14.377Z,39.13
2024-01-05T11:00:14.561Z,39.14
2024-01-05T11:01:14.593Z,39.11
2024-01-05T11:02:14.524Z,39.14
2024-01-05T11:03:14.676Z,39.12
2024-01-05T11:04:14.701Z,39.12
2024-01-05T11:05:15.585Z,39.11
2024-01-05T11:06:14.785Z,39.11
2024-01-05T11:07:14.880Z,39.13
2024-01-05T11:08:14.805Z,39.09
2024-01-05T11:09:14.867Z,39.10
2024-01-05T11:10:14.918Z,39.09
2024-01-05T11:11:14.980Z,39.11
2024-01-05T11:12:15.025Z,39.10
2024-01-05T11:13:15.070Z,39.10
2024-01-05T11:14:15.194Z,39.12
2024-01-05T11:15:15.239Z,39.10
2024-01-05T11:16:15.223Z,39.10
2024-01-05T11:17:15.277Z,39.11
2024-01-05T11:18:15.370Z,39.08
2024-01-05T11:19:15.419Z,39.08
2024-01-05T11:20:15.408Z,39.08
2024-01-05T11:21:15.508Z,39.06
2024-01-05T11:22:15.506Z,39.06
2024-01-05T11:23:15.564Z,39.06
2024-01-05T11:24:17.626Z,39.05
2024-01-05T11:25:15.590Z,39.05
2024-01-05T11:26:15.563Z,39.05
2024-01-05T11:27:15.582Z,39.03
2024-01-05T11:28:15.540Z,39.03
2024-01-05T11:29:15.525Z,38.99
2024-01-05T11:30:15.595Z,39.01
2024-01-05T11:31:15.626Z,39.02
2024-01-05T11:32:15.510Z,39.02
2024-01-05T11:33:18.407Z,39.02
2024-01-05T11:34:16.586Z,39.05
2024-01-05T11:35:15.458Z,39.03
2024-01-05T11:36:15.432Z,39.01
2024-01-05T11:37:15.429Z,39.02
2024-01-05T11:38:15.401Z,39.05
2024-01-05T11:39:15.431Z,39.03
2024-01-05T11:40:15.378Z,39.05
2024-01-05T11:41:15.355Z,39.06
2024-01-05T11:42:15.336Z,39.05
2024-01-05T11:43:15.376Z,39.06
2024-01-05T11:44:15.418Z,39.05
2024-01-05T11:45:15.528Z,39.07
2024-01-05T11:46:18.744Z,39.08
2024-01-05T11:47:16.496Z,39.10
2024-01-05T11:48:15.705Z,39.10
2024-01-05T11:49:15.541Z,39.10
2024-01-05T11:50:15.485Z,39.09
2024-01-05T11:51:15.513Z,39.09
2024-01-05T11:52:15.450Z,39.09
2024-01-05T11:53:15.532Z,39.07
2024-01-05T11:54:15.422Z,39.09
2024-01-05T11:55:15.426Z,39.11
2024-01-05T11:56:15.472Z,39.10
2024-01-05T11:57:15.590Z,39.11
2024-01-05T11:58:15.557Z,39.11
2024-01-05T11:59:15.584Z,39.13
2024-01-05T12:00:15.761Z,39.11
2024-01-05T12:01:15.732Z,39.09
2024-01-05T12:02:15.748Z,39.08
2024-01-05T12:03:15.852Z,39.07
2024-01-05T12:04:16.005Z,39.06
2024-01-05T12:05:15.842Z,39.05
2024-01-05T12:06:16.086Z,39.04
2024-01-05T12:07:15.912Z,39.04
2024-01-05T12:08:15.972Z,39.04
2024-01-05T12:09:16.028Z,39.05
2024-01-05T12:10:16.001Z,39.06
2024-01-05T12:11:16.045Z,39.07
2024-01-05T12:12:16.127Z,39.05
2024-01-05T12:13:16.131Z,39.06
2024-01-05T12:14:16.181Z,39.07
2024-01-05T12:15:16.229Z,39.06
2024-01-05T12:16:16.258Z,39.06
2024-01-05T12:17:16.410Z,39.08
2024-01-05T12:18:23.299Z,39.08
2024-01-05T12:19:17.521Z,39.09
2024-01-05T12:20:16.333Z,39.08
2024-01-05T12:21:16.385Z,39.07
2024-01-05T12:22:16.297Z,39.07
2024-01-05T12:23:16.287Z,39.08
2024-01-05T12:24:16.284Z,39.06
2024-01-05T12:25:16.239Z,39.07
2024-01-05T12:26:16.211Z,39.08
2024-01-05T12:27:16.229Z,39.08
2024-01-05T12:28:16.239Z,39.09
2024-01-05T12:29:16.242Z,39.06
2024-01-05T12:30:16.407Z,39.07
2024-01-05T12:31:16.516Z,39.08
2024-01-05T12:32:16.365Z,39.07
2024-01-05T12:33:16.534Z,39.08
2024-01-05T12:34:16.508Z,39.08
2024-01-05T12:35:16.538Z,39.09
2024-01-05T12:36:16.579Z,39.08
2024-01-05T12:37:16.594Z,39.08
2024-01-05T12:38:16.614Z,39.07
2024-01-05T12:39:16.701Z,39.07
2024-01-05T12:40:16.674Z,39.08
2024-01-05T12:41:20.151Z,39.09
2024-01-05T12:42:16.786Z,39.08
2024-01-05T12:43:16.709Z,39.09
2024-01-05T12:44:16.998Z,39.10
2024-01-05T12:45:16.700Z,39.09
2024-01-05T12:46:16.671Z,39.10
2024-01-05T12:47:16.650Z,39.10
2024-01-05T12:48:16.804Z,39.10
2024-01-05T12:49:16.683Z,39.10
2024-01-05T12:50:16.594Z,39.10
2024-01-05T12:51:16.658Z,39.13
2024-01-05T12:52:16.583Z,39.13
2024-01-05T12:53:16.544Z,39.12